LSZL

Locarno Airport

Locarno, Switzerland
TAF LSZL 171125Z 1712/1721 09005KT CAVOK
Issued Valid From Valid To
Dec-17 @ 11:25 UTC
(2 hours ago)
Dec-17 @ 12:00 UTC
(an hour ago)
Dec-17 @ 21:00 UTC
(in 8 hours)
Dec-17 @ 12:00 to Dec-17 @ 21:00
TAF LSZL 171125Z 1712/1721 09005KT CAVOK
Wind Visibility Clouds Conditions
90° at 5 knots 10,000+ meters
  • No significant clouds
TAF LSZL 171125Z 1712/1721 09005KT CAVOK
Issued Dec-17 @ 11:25 UTC
(2 hours ago)
Valid From Dec-17 @ 12:00 UTC
(an hour ago)
Valid To Dec-17 @ 21:00 UTC
(in 8 hours)
Dec-17 @ 12:00 - Dec-17 @ 21:00
Wind Visibility
90° at 5 knots 10,000+ meters
Clouds
  • No significant clouds
Conditions